x

Dunkirk, Ny (dbln6) Weather Station

1:00am - Fri 9th Dec 2016 All times are CST. -6 hours from GMT.

  • Wind
    30mph, 36mph gusts
  • Air Temp 33°f
  • Sea Pressure 1018.3mb
  • Dunkirk, Ny
  • Dunkirk, Ny

More Historic Weather Station data

Upgrade to MSW Pro to gain access to the past 30 days of data for over 8000 Wavebouys and Weather Stations around the globe.

Join Pro

Comparision Forecast

View Surf forecast
   
Fri 12/09 1:00am 30 36 mph 1018.3mb 33f
12:00am 36 39 mph 1016.7mb 34f
Thu 12/08 11:00pm 39 44 mph 1016.4mb 34f
10:00pm 37 41 mph 1016.6mb 33f
9:00pm 32 39 mph 1017mb 34f
8:00pm 31 37 mph 1017.2mb 33f
7:00pm 34 41 mph 1016.1mb 33f
6:00pm 36 40 mph 1015.7mb 33f
5:00pm 34 41 mph 1015.8mb 31f
4:00pm 33 40 mph 1015.1mb 33f
3:00pm 41 46 mph 1013.2mb 33f
2:00pm 38 45 mph 1013.2mb 32f
1:00pm 37 40 mph 1012.8mb 32f
12:00pm 32 38 mph 1013.1mb 32f
11:00am 33 37 mph 1013.4mb 31f
10:00am 30 33 mph 1013.9mb 31f
9:00am 24 31 mph 1014.5mb 32f
8:00am 28 32 mph 1013.5mb 35f
7:00am 31 38 mph 1012.7mb 36f
6:00am 31 33 mph 1012.4mb 35f
5:00am 36 41 mph 1011.6mb 37f
4:00am 24 31 mph 1013mb 36f
3:00am 21 26 mph 1013.4mb 36f
2:00am 17 24 mph 1014.2mb 37f
1:00am 14 22 mph 1014.6mb 37f
12:00am 14 18 mph 1014.7mb 37f
Wed 12/07 11:00pm 10 18 mph 1015mb 36f
10:00pm 9 18 mph 1015.4mb 36f
9:00pm 14 21 mph 1015.6mb 36f
8:00pm 14 20 mph 1016mb 37f
7:00pm 13 17 mph 1016.4mb 36f
6:00pm 10 15 mph 1016.7mb 35f
5:00pm 10 14 mph 1016.9mb 36f
4:00pm 11 15 mph 1016.6mb 37f
3:00pm 22 28 mph 1015.7mb 38f
2:00pm 34 39 mph 1014.8mb 38f
1:00pm 26 31 mph 1015.2mb 37f
12:00pm 26 31 mph 1014.5mb 37f
11:00am 28 32 mph 1014.6mb 37f
10:00am 30 36 mph 1014.5mb 39f
9:00am 26 33 mph 1014.8mb 39f
8:00am 33 37 mph 1013.2mb 40f
7:00am 38 43 mph 1011.7mb 41f
6:00am 26 30 mph 1012.7mb 41f
5:00am 30 32 mph 1011.7mb 41f
4:00am 30 33 mph 1010.8mb 41f
3:00am 38 40 mph 1009mb 43f
2:00am 34 38 mph 1008mb 43f
1:00am 21 25 mph 1008.3mb 42f
12:00am 10 16 mph 1008.3mb 40f
Tue 12/06 11:00pm 10 18 mph 1008mb 41f
10:00pm 10 16 mph 1008mb 39f
9:00pm 3 6 mph 1007.8mb 39f
8:00pm 3 5 mph 1007.8mb 37f
6:00pm 9 10 mph 1008mb 38f
5:00pm 10 11 mph 1008.2mb 38f
4:00pm 10 13 mph 1008.2mb 38f
3:00pm 10 11 mph 1008.4mb 39f
2:00pm 8 10 mph 1008.5mb 41f
1:00pm 10 11 mph 1009.2mb 43f
12:00pm 10 14 mph 1009.7mb 42f
11:00am 6 7 mph 1011.1mb 42f
10:00am 14 15 mph 1012mb 40f
9:00am 14 17 mph 1013.6mb 40f
8:00am 16 17 mph 1014.5mb 37f
7:00am 18 21 mph 1015.2mb 37f
6:00am 8
mph
1017.2mb 37f
5:00am 6 7 mph 1017.6mb 37f
4:00am 7 8 mph 1018mb 36f
3:00am 8 10 mph 1018.4mb 38f
2:00am 7
mph
1019mb 38f
1:00am 6 7 mph 1019.3mb 39f
12:00am 5 6 mph 1019.7mb 40f
Mon 12/05 11:00pm 3 6 mph 1019.6mb 42f
10:00pm 8 9 mph 1019.6mb 42f
9:00pm 14 16 mph 1019.1mb 42f
8:00pm 15 16 mph 1019mb 43f
7:00pm 18 21 mph 1018.5mb 43f
6:00pm 20 23 mph 1018.3mb 43f
5:00pm 23 24 mph 1017.5mb 43f
4:00pm 22 26 mph 1017.5mb 42f
3:00pm 24 26 mph 1016.3mb 42f
2:00pm 28 31 mph 1015.9mb 42f
1:00pm 25 28 mph 1015.6mb 41f
12:00pm 30 33 mph 1014.7mb 41f
11:00am 32 36 mph 1014mb 42f
10:00am 33 38 mph 1014.2mb 42f
9:00am 38 41 mph 1013.3mb 41f